createdAt,value
2024-03-05T00:20:47.413Z,101484.81
2024-03-05T00:43:19.242Z,101485.84
2024-03-05T01:05:51.184Z,101491.41
2024-03-05T01:28:23.053Z,101496.25
2024-03-05T01:50:56.505Z,101502.09
2024-03-05T02:13:29.134Z,101495.78
2024-03-05T02:36:01.389Z,101506.09
2024-03-05T02:58:33.181Z,101504.56
2024-03-05T03:21:05.955Z,101506.44
2024-03-05T03:43:37.837Z,101520.03
2024-03-05T04:06:10.392Z,101536.25
2024-03-05T04:28:50.760Z,101559.25
2024-03-05T04:51:23.000Z,101551.63
2024-03-05T05:13:54.744Z,101551.28
2024-03-05T05:36:26.578Z,101567.97
2024-03-05T05:58:59.635Z,101590.97
2024-03-05T06:21:31.486Z,101605.78
2024-03-05T06:44:11.554Z,101620.59
2024-03-05T07:06:43.711Z,101644.19
2024-03-05T07:29:15.632Z,101659.91
2024-03-05T07:51:47.480Z,101654.72
2024-03-05T08:14:19.268Z,101659.97
2024-03-05T08:36:51.276Z,101681.72
2024-03-05T08:59:23.116Z,101688.59
2024-03-05T09:21:54.810Z,101695.47
2024-03-05T09:44:26.906Z,101708.66
2024-03-05T10:06:58.678Z,101726.75
2024-03-05T10:29:36.565Z,101736.97
2024-03-05T10:52:10.829Z,101745.69
2024-03-05T11:14:42.879Z,101751.47
2024-03-05T11:37:16.614Z,101738.22
2024-03-05T11:59:49.915Z,101745.22
2024-03-05T12:22:21.737Z,101739.94
2024-03-05T12:45:08.952Z,101741.38
2024-03-05T13:07:42.867Z,101736.69
2024-03-05T13:30:21.380Z,101740.28
2024-03-05T13:52:53.906Z,101739.66
2024-03-05T14:15:26.201Z,101751.56
2024-03-05T14:37:59.321Z,101764.69
2024-03-05T15:00:32.187Z,101774.91
2024-03-05T15:23:04.283Z,101796.75
2024-03-05T15:45:38.937Z,101804.00
2024-03-05T16:08:13.240Z,101819.00
2024-03-05T16:30:45.149Z,101835.53
2024-03-05T16:53:17.008Z,101861.78
2024-03-05T17:15:57.478Z,101886.31
2024-03-05T17:38:32.954Z,101905.63
2024-03-05T18:01:12.447Z,101929.28
2024-03-05T18:23:44.858Z,101946.88
2024-03-05T18:46:16.869Z,101960.91
2024-03-05T19:08:49.108Z,101975.88
2024-03-05T19:31:20.934Z,101984.66
2024-03-05T19:53:53.820Z,102010.88
2024-03-05T20:16:25.674Z,102017.94
2024-03-05T20:38:58.984Z,102036.28
2024-03-05T21:01:31.375Z,102040.69
2024-03-05T21:24:04.405Z,102058.16
2024-03-05T21:46:36.558Z,102057.28
2024-03-05T22:09:12.250Z,102066.00
2024-03-05T22:31:44.373Z,102091.28
2024-03-05T22:54:16.386Z,102102.59
2024-03-05T23:16:49.978Z,102098.25
2024-03-05T23:39:21.990Z,102117.41
